sensor_id;sensor_type;location;lat;lon;timestamp;P1;durP1;ratioP1;P2;durP2;ratioP2
38785;SDS011;24535;45.508;12.252;2022-12-07T00:01:37;47.60;;;32.28;;
38785;SDS011;24535;45.508;12.252;2022-12-07T00:04:04;40.67;;;31.52;;
38785;SDS011;24535;45.508;12.252;2022-12-07T00:06:35;37.72;;;27.83;;
38785;SDS011;24535;45.508;12.252;2022-12-07T00:09:03;38.40;;;29.38;;
38785;SDS011;24535;45.508;12.252;2022-12-07T00:11:30;35.72;;;29.80;;
38785;SDS011;24535;45.508;12.252;2022-12-07T00:13:57;38.65;;;30.08;;
38785;SDS011;24535;45.508;12.252;2022-12-07T00:16:26;36.95;;;31.27;;
38785;SDS011;24535;45.508;12.252;2022-12-07T00:18:53;39.28;;;31.75;;
38785;SDS011;24535;45.508;12.252;2022-12-07T00:21:20;39.40;;;29.85;;
38785;SDS011;24535;45.508;12.252;2022-12-07T00:23:48;40.28;;;30.40;;
38785;SDS011;24535;45.508;12.252;2022-12-07T00:26:16;40.35;;;32.53;;
38785;SDS011;24535;45.508;12.252;2022-12-07T00:28:47;37.20;;;32.03;;
38785;SDS011;24535;45.508;12.252;2022-12-07T00:31:14;31.95;;;28.30;;
38785;SDS011;24535;45.508;12.252;2022-12-07T00:33:40;38.13;;;31.95;;
38785;SDS011;24535;45.508;12.252;2022-12-07T00:36:07;40.55;;;31.92;;
38785;SDS011;24535;45.508;12.252;2022-12-07T00:38:36;33.83;;;29.20;;
38785;SDS011;24535;45.508;12.252;2022-12-07T00:41:04;33.05;;;29.55;;
38785;SDS011;24535;45.508;12.252;2022-12-07T00:43:31;36.78;;;32.80;;
38785;SDS011;24535;45.508;12.252;2022-12-07T00:45:57;35.25;;;31.00;;
38785;SDS011;24535;45.508;12.252;2022-12-07T00:48:23;37.33;;;33.10;;
38785;SDS011;24535;45.508;12.252;2022-12-07T00:50:49;40.53;;;33.80;;
38785;SDS011;24535;45.508;12.252;2022-12-07T00:53:14;38.53;;;32.67;;
38785;SDS011;24535;45.508;12.252;2022-12-07T00:55:40;39.17;;;32.88;;
38785;SDS011;24535;45.508;12.252;2022-12-07T00:58:06;39.25;;;32.45;;
38785;SDS011;24535;45.508;12.252;2022-12-07T01:00:32;33.17;;;29.70;;
38785;SDS011;24535;45.508;12.252;2022-12-07T01:02:58;35.83;;;30.90;;
38785;SDS011;24535;45.508;12.252;2022-12-07T01:05:24;32.60;;;28.83;;
38785;SDS011;24535;45.508;12.252;2022-12-07T01:07:49;30.52;;;27.20;;
38785;SDS011;24535;45.508;12.252;2022-12-07T01:10:15;33.05;;;29.35;;
38785;SDS011;24535;45.508;12.252;2022-12-07T01:12:40;29.92;;;25.85;;
38785;SDS011;24535;45.508;12.252;2022-12-07T01:15:06;33.97;;;29.80;;
38785;SDS011;24535;45.508;12.252;2022-12-07T01:17:32;27.50;;;24.45;;
38785;SDS011;24535;45.508;12.252;2022-12-07T01:19:58;32.08;;;27.20;;
38785;SDS011;24535;45.508;12.252;2022-12-07T01:22:24;30.52;;;26.80;;
38785;SDS011;24535;45.508;12.252;2022-12-07T01:24:49;30.23;;;27.08;;
38785;SDS011;24535;45.508;12.252;2022-12-07T01:27:15;31.00;;;26.60;;
38785;SDS011;24535;45.508;12.252;2022-12-07T01:29:41;32.30;;;26.00;;
38785;SDS011;24535;45.508;12.252;2022-12-07T01:32:06;31.58;;;28.13;;
38785;SDS011;24535;45.508;12.252;2022-12-07T01:34:32;31.35;;;27.38;;
38785;SDS011;24535;45.508;12.252;2022-12-07T01:36:57;30.98;;;27.63;;
38785;SDS011;24535;45.508;12.252;2022-12-07T01:39:23;32.95;;;29.52;;
38785;SDS011;24535;45.508;12.252;2022-12-07T01:41:49;29.38;;;25.88;;
38785;SDS011;24535;45.508;12.252;2022-12-07T01:44:24;36.20;;;30.13;;
38785;SDS011;24535;45.508;12.252;2022-12-07T01:49:40;30.98;;;27.40;;
38785;SDS011;24535;45.508;12.252;2022-12-07T01:54:48;27.33;;;23.95;;
38785;SDS011;24535;45.508;12.252;2022-12-07T01:57:16;31.37;;;28.00;;
38785;SDS011;24535;45.508;12.252;2022-12-07T01:59:42;29.77;;;26.10;;
38785;SDS011;24535;45.508;12.252;2022-12-07T02:02:11;30.95;;;27.67;;
38785;SDS011;24535;45.508;12.252;2022-12-07T02:04:43;32.42;;;27.67;;
38785;SDS011;24535;45.508;12.252;2022-12-07T02:07:09;25.73;;;23.05;;
38785;SDS011;24535;45.508;12.252;2022-12-07T02:09:35;29.98;;;26.60;;
38785;SDS011;24535;45.508;12.252;2022-12-07T02:12:01;28.42;;;25.42;;
38785;SDS011;24535;45.508;12.252;2022-12-07T02:14:27;29.42;;;26.23;;
38785;SDS011;24535;45.508;12.252;2022-12-07T02:17:04;27.70;;;24.60;;
38785;SDS011;24535;45.508;12.252;2022-12-07T02:20:28;27.98;;;24.58;;
38785;SDS011;24535;45.508;12.252;2022-12-07T02:22:49;26.80;;;24.05;;
38785;SDS011;24535;45.508;12.252;2022-12-07T02:31:33;24.33;;;21.73;;
38785;SDS011;24535;45.508;12.252;2022-12-07T02:34:04;25.17;;;22.63;;
38785;SDS011;24535;45.508;12.252;2022-12-07T02:36:46;26.65;;;23.83;;
38785;SDS011;24535;45.508;12.252;2022-12-07T02:39:39;28.83;;;25.60;;
38785;SDS011;24535;45.508;12.252;2022-12-07T02:42:18;28.27;;;25.30;;
38785;SDS011;24535;45.508;12.252;2022-12-07T02:44:50;25.23;;;22.63;;
38785;SDS011;24535;45.508;12.252;2022-12-07T02:47:17;28.77;;;25.73;;
38785;SDS011;24535;45.508;12.252;2022-12-07T02:52:11;26.10;;;23.20;;
38785;SDS011;24535;45.508;12.252;2022-12-07T02:54:37;26.05;;;23.38;;
38785;SDS011;24535;45.508;12.252;2022-12-07T03:11:13;26.67;;;23.85;;
38785;SDS011;24535;45.508;12.252;2022-12-07T03:16:30;28.45;;;25.58;;
38785;SDS011;24535;45.508;12.252;2022-12-07T03:19:02;29.13;;;25.83;;
38785;SDS011;24535;45.508;12.252;2022-12-07T03:22:07;29.48;;;26.40;;
38785;SDS011;24535;45.508;12.252;2022-12-07T03:24:50;28.75;;;25.75;;
38785;SDS011;24535;45.508;12.252;2022-12-07T03:32:37;25.55;;;23.02;;
38785;SDS011;24535;45.508;12.252;2022-12-07T03:35:13;27.17;;;24.35;;
38785;SDS011;24535;45.508;12.252;2022-12-07T03:37:53;26.00;;;23.30;;
38785;SDS011;24535;45.508;12.252;2022-12-07T03:40:28;24.75;;;21.77;;
38785;SDS011;24535;45.508;12.252;2022-12-07T03:42:57;23.70;;;21.23;;
38785;SDS011;24535;45.508;12.252;2022-12-07T03:45:30;25.65;;;22.90;;
38785;SDS011;24535;45.508;12.252;2022-12-07T03:50:30;26.65;;;23.85;;
38785;SDS011;24535;45.508;12.252;2022-12-07T03:53:05;23.27;;;20.67;;
38785;SDS011;24535;45.508;12.252;2022-12-07T03:55:39;23.90;;;21.58;;
38785;SDS011;24535;45.508;12.252;2022-12-07T03:58:09;22.27;;;20.08;;
38785;SDS011;24535;45.508;12.252;2022-12-07T04:03:02;23.63;;;21.23;;
38785;SDS011;24535;45.508;12.252;2022-12-07T04:05:28;22.48;;;20.17;;
38785;SDS011;24535;45.508;12.252;2022-12-07T04:07:54;22.60;;;20.30;;
38785;SDS011;24535;45.508;12.252;2022-12-07T04:10:19;20.58;;;18.40;;
38785;SDS011;24535;45.508;12.252;2022-12-07T04:12:45;28.67;;;21.30;;
38785;SDS011;24535;45.508;12.252;2022-12-07T04:15:10;22.77;;;20.10;;
38785;SDS011;24535;45.508;12.252;2022-12-07T04:17:36;22.75;;;20.35;;
38785;SDS011;24535;45.508;12.252;2022-12-07T04:20:02;22.58;;;20.00;;
38785;SDS011;24535;45.508;12.252;2022-12-07T04:22:28;20.45;;;18.35;;
38785;SDS011;24535;45.508;12.252;2022-12-07T04:24:54;21.67;;;19.33;;
38785;SDS011;24535;45.508;12.252;2022-12-07T04:27:20;21.08;;;18.20;;
38785;SDS011;24535;45.508;12.252;2022-12-07T04:29:45;22.00;;;19.63;;
38785;SDS011;24535;45.508;12.252;2022-12-07T04:32:10;22.85;;;20.55;;
38785;SDS011;24535;45.508;12.252;2022-12-07T04:34:36;22.80;;;20.42;;
38785;SDS011;24535;45.508;12.252;2022-12-07T04:37:01;20.35;;;18.25;;
38785;SDS011;24535;45.508;12.252;2022-12-07T04:39:30;20.05;;;17.73;;
38785;SDS011;24535;45.508;12.252;2022-12-07T04:42:03;21.20;;;19.00;;
38785;SDS011;24535;45.508;12.252;2022-12-07T04:44:28;20.92;;;18.80;;
38785;SDS011;24535;45.508;12.252;2022-12-07T04:46:55;20.48;;;18.42;;
38785;SDS011;24535;45.508;12.252;2022-12-07T04:49:22;20.13;;;18.08;;
38785;SDS011;24535;45.508;12.252;2022-12-07T04:51:48;21.60;;;19.30;;
38785;SDS011;24535;45.508;12.252;2022-12-07T04:54:15;20.45;;;18.25;;
38785;SDS011;24535;45.508;12.252;2022-12-07T04:56:42;19.33;;;17.27;;
38785;SDS011;24535;45.508;12.252;2022-12-07T04:59:08;20.33;;;18.17;;
38785;SDS011;24535;45.508;12.252;2022-12-07T05:01:35;23.98;;;18.83;;
38785;SDS011;24535;45.508;12.252;2022-12-07T05:04:00;22.45;;;18.88;;
38785;SDS011;24535;45.508;12.252;2022-12-07T05:06:26;19.45;;;17.52;;
38785;SDS011;24535;45.508;12.252;2022-12-07T05:08:52;19.55;;;17.48;;
38785;SDS011;24535;45.508;12.252;2022-12-07T05:11:17;21.35;;;18.95;;
38785;SDS011;24535;45.508;12.252;2022-12-07T05:14:02;22.65;;;19.38;;
38785;SDS011;24535;45.508;12.252;2022-12-07T05:16:28;20.73;;;18.42;;
38785;SDS011;24535;45.508;12.252;2022-12-07T05:18:54;20.80;;;18.67;;
38785;SDS011;24535;45.508;12.252;2022-12-07T05:21:20;23.08;;;20.65;;
38785;SDS011;24535;45.508;12.252;2022-12-07T05:23:45;23.58;;;19.23;;
38785;SDS011;24535;45.508;12.252;2022-12-07T05:26:11;22.85;;;18.02;;
38785;SDS011;24535;45.508;12.252;2022-12-07T05:28:37;21.92;;;19.73;;
38785;SDS011;24535;45.508;12.252;2022-12-07T05:31:02;22.10;;;19.38;;
38785;SDS011;24535;45.508;12.252;2022-12-07T05:33:28;23.98;;;20.80;;
38785;SDS011;24535;45.508;12.252;2022-12-07T05:35:53;21.98;;;19.58;;
38785;SDS011;24535;45.508;12.252;2022-12-07T05:38:19;23.92;;;20.60;;
38785;SDS011;24535;45.508;12.252;2022-12-07T05:40:53;23.60;;;21.10;;
38785;SDS011;24535;45.508;12.252;2022-12-07T05:43:19;23.60;;;19.55;;
38785;SDS011;24535;45.508;12.252;2022-12-07T05:45:44;22.67;;;20.17;;
38785;SDS011;24535;45.508;12.252;2022-12-07T05:50:49;24.20;;;21.02;;
38785;SDS011;24535;45.508;12.252;2022-12-07T05:53:15;22.00;;;19.65;;
38785;SDS011;24535;45.508;12.252;2022-12-07T05:55:46;21.85;;;19.55;;
38785;SDS011;24535;45.508;12.252;2022-12-07T05:58:11;23.98;;;21.02;;
38785;SDS011;24535;45.508;12.252;2022-12-07T06:00:55;21.85;;;19.48;;
38785;SDS011;24535;45.508;12.252;2022-12-07T06:12:43;26.75;;;23.58;;
38785;SDS011;24535;45.508;12.252;2022-12-07T06:15:11;24.83;;;22.15;;
38785;SDS011;24535;45.508;12.252;2022-12-07T06:17:38;23.00;;;20.58;;
38785;SDS011;24535;45.508;12.252;2022-12-07T06:20:04;25.08;;;22.55;;
38785;SDS011;24535;45.508;12.252;2022-12-07T06:22:30;23.40;;;20.00;;
38785;SDS011;24535;45.508;12.252;2022-12-07T06:24:56;23.13;;;20.60;;
38785;SDS011;24535;45.508;12.252;2022-12-07T06:29:56;22.02;;;19.83;;
38785;SDS011;24535;45.508;12.252;2022-12-07T06:32:22;24.08;;;21.50;;
38785;SDS011;24535;45.508;12.252;2022-12-07T06:35:05;23.60;;;20.13;;
38785;SDS011;24535;45.508;12.252;2022-12-07T06:37:31;23.65;;;21.10;;
38785;SDS011;24535;45.508;12.252;2022-12-07T06:39:56;28.27;;;21.95;;
38785;SDS011;24535;45.508;12.252;2022-12-07T06:42:22;27.30;;;21.25;;
38785;SDS011;24535;45.508;12.252;2022-12-07T06:44:47;22.65;;;20.30;;
38785;SDS011;24535;45.508;12.252;2022-12-07T06:47:13;27.15;;;22.35;;
38785;SDS011;24535;45.508;12.252;2022-12-07T06:53:03;24.15;;;21.67;;
38785;SDS011;24535;45.508;12.252;2022-12-07T06:55:37;23.60;;;20.27;;
38785;SDS011;24535;45.508;12.252;2022-12-07T06:58:03;22.08;;;19.85;;
38785;SDS011;24535;45.508;12.252;2022-12-07T07:00:28;23.65;;;20.20;;
38785;SDS011;24535;45.508;12.252;2022-12-07T07:02:54;23.65;;;20.60;;
38785;SDS011;24535;45.508;12.252;2022-12-07T07:05:20;24.13;;;20.80;;
38785;SDS011;24535;45.508;12.252;2022-12-07T07:07:48;25.60;;;20.80;;
38785;SDS011;24535;45.508;12.252;2022-12-07T07:10:14;25.08;;;20.10;;
38785;SDS011;24535;45.508;12.252;2022-12-07T07:12:39;22.63;;;19.23;;
38785;SDS011;24535;45.508;12.252;2022-12-07T07:15:08;23.15;;;20.48;;
38785;SDS011;24535;45.508;12.252;2022-12-07T07:20:38;24.30;;;21.40;;
38785;SDS011;24535;45.508;12.252;2022-12-07T07:23:03;24.75;;;21.55;;
38785;SDS011;24535;45.508;12.252;2022-12-07T07:25:29;23.88;;;20.70;;
38785;SDS011;24535;45.508;12.252;2022-12-07T07:27:55;29.10;;;22.77;;
38785;SDS011;24535;45.508;12.252;2022-12-07T07:30:20;23.70;;;20.63;;
38785;SDS011;24535;45.508;12.252;2022-12-07T07:32:46;19.95;;;17.85;;
38785;SDS011;24535;45.508;12.252;2022-12-07T07:35:11;23.25;;;20.48;;
38785;SDS011;24535;45.508;12.252;2022-12-07T07:37:42;24.52;;;21.77;;
38785;SDS011;24535;45.508;12.252;2022-12-07T07:40:08;23.17;;;19.60;;
38785;SDS011;24535;45.508;12.252;2022-12-07T07:42:34;23.45;;;20.92;;
38785;SDS011;24535;45.508;12.252;2022-12-07T07:45:00;22.98;;;20.02;;
38785;SDS011;24535;45.508;12.252;2022-12-07T07:47:25;25.17;;;22.48;;
38785;SDS011;24535;45.508;12.252;2022-12-07T07:49:51;23.27;;;20.88;;
38785;SDS011;24535;45.508;12.252;2022-12-07T07:52:16;24.15;;;20.48;;
38785;SDS011;24535;45.508;12.252;2022-12-07T07:54:42;24.90;;;21.63;;
38785;SDS011;24535;45.508;12.252;2022-12-07T07:57:07;24.70;;;22.15;;
38785;SDS011;24535;45.508;12.252;2022-12-07T07:59:33;24.95;;;22.30;;
38785;SDS011;24535;45.508;12.252;2022-12-07T08:01:58;31.02;;;23.15;;
38785;SDS011;24535;45.508;12.252;2022-12-07T08:04:24;23.23;;;20.75;;
38785;SDS011;24535;45.508;12.252;2022-12-07T08:06:49;29.00;;;23.40;;
38785;SDS011;24535;45.508;12.252;2022-12-07T08:09:15;22.33;;;19.98;;
38785;SDS011;24535;45.508;12.252;2022-12-07T08:11:40;24.33;;;18.77;;
38785;SDS011;24535;45.508;12.252;2022-12-07T08:14:05;24.83;;;20.00;;
38785;SDS011;24535;45.508;12.252;2022-12-07T08:16:31;23.58;;;20.40;;
38785;SDS011;24535;45.508;12.252;2022-12-07T08:18:56;24.98;;;20.45;;
38785;SDS011;24535;45.508;12.252;2022-12-07T08:21:22;23.88;;;20.90;;
38785;SDS011;24535;45.508;12.252;2022-12-07T08:23:57;28.20;;;21.05;;
38785;SDS011;24535;45.508;12.252;2022-12-07T08:26:22;25.42;;;20.85;;
38785;SDS011;24535;45.508;12.252;2022-12-07T08:28:48;24.58;;;21.00;;
38785;SDS011;24535;45.508;12.252;2022-12-07T08:31:17;25.25;;;21.23;;
38785;SDS011;24535;45.508;12.252;2022-12-07T08:33:44;23.88;;;20.95;;
38785;SDS011;24535;45.508;12.252;2022-12-07T08:36:12;21.83;;;19.52;;
38785;SDS011;24535;45.508;12.252;2022-12-07T08:38:38;24.75;;;19.38;;
38785;SDS011;24535;45.508;12.252;2022-12-07T08:41:05;21.50;;;17.70;;
38785;SDS011;24535;45.508;12.252;2022-12-07T08:43:31;28.15;;;22.98;;
38785;SDS011;24535;45.508;12.252;2022-12-07T08:49:05;20.23;;;18.20;;
38785;SDS011;24535;45.508;12.252;2022-12-07T08:51:34;21.73;;;17.75;;
38785;SDS011;24535;45.508;12.252;2022-12-07T08:54:01;26.63;;;19.73;;
38785;SDS011;24535;45.508;12.252;2022-12-07T08:56:31;22.65;;;16.63;;
38785;SDS011;24535;45.508;12.252;2022-12-07T08:58:59;19.02;;;16.48;;
38785;SDS011;24535;45.508;12.252;2022-12-07T09:01:24;23.92;;;17.85;;
38785;SDS011;24535;45.508;12.252;2022-12-07T09:03:52;21.23;;;16.58;;
38785;SDS011;24535;45.508;12.252;2022-12-07T09:06:18;16.98;;;15.15;;
38785;SDS011;24535;45.508;12.252;2022-12-07T09:08:45;19.65;;;16.63;;
38785;SDS011;24535;45.508;12.252;2022-12-07T09:11:17;17.98;;;15.38;;
38785;SDS011;24535;45.508;12.252;2022-12-07T09:13:42;18.35;;;15.30;;
38785;SDS011;24535;45.508;12.252;2022-12-07T09:16:08;20.85;;;15.15;;
38785;SDS011;24535;45.508;12.252;2022-12-07T09:18:33;15.85;;;14.15;;
38785;SDS011;24535;45.508;12.252;2022-12-07T09:20:59;19.27;;;13.40;;
38785;SDS011;24535;45.508;12.252;2022-12-07T09:23:25;20.02;;;15.10;;
38785;SDS011;24535;45.508;12.252;2022-12-07T09:25:50;19.10;;;15.30;;
38785;SDS011;24535;45.508;12.252;2022-12-07T09:28:16;16.52;;;13.40;;
38785;SDS011;24535;45.508;12.252;2022-12-07T09:30:45;16.73;;;13.85;;
38785;SDS011;24535;45.508;12.252;2022-12-07T09:33:13;17.05;;;13.75;;
38785;SDS011;24535;45.508;12.252;2022-12-07T09:35:46;16.88;;;15.07;;
38785;SDS011;24535;45.508;12.252;2022-12-07T09:38:15;16.33;;;14.38;;
38785;SDS011;24535;45.508;12.252;2022-12-07T09:40:41;15.27;;;13.35;;
38785;SDS011;24535;45.508;12.252;2022-12-07T09:43:15;22.10;;;14.82;;
38785;SDS011;24535;45.508;12.252;2022-12-07T09:45:47;20.02;;;14.07;;
38785;SDS011;24535;45.508;12.252;2022-12-07T09:48:20;19.30;;;15.88;;
38785;SDS011;24535;45.508;12.252;2022-12-07T09:50:50;17.17;;;13.10;;
38785;SDS011;24535;45.508;12.252;2022-12-07T09:53:38;16.35;;;12.90;;
38785;SDS011;24535;45.508;12.252;2022-12-07T09:56:04;15.70;;;13.35;;
38785;SDS011;24535;45.508;12.252;2022-12-07T09:58:31;20.83;;;14.07;;
38785;SDS011;24535;45.508;12.252;2022-12-07T10:01:04;17.33;;;12.90;;
38785;SDS011;24535;45.508;12.252;2022-12-07T10:03:38;18.60;;;14.82;;
38785;SDS011;24535;45.508;12.252;2022-12-07T10:06:05;16.75;;;13.60;;
38785;SDS011;24535;45.508;12.252;2022-12-07T10:08:32;17.00;;;12.77;;
38785;SDS011;24535;45.508;12.252;2022-12-07T10:10:58;19.45;;;14.13;;
38785;SDS011;24535;45.508;12.252;2022-12-07T10:13:39;16.80;;;12.60;;
38785;SDS011;24535;45.508;12.252;2022-12-07T10:16:06;15.15;;;11.85;;
38785;SDS011;24535;45.508;12.252;2022-12-07T10:18:53;20.13;;;13.50;;
38785;SDS011;24535;45.508;12.252;2022-12-07T10:21:19;13.90;;;12.27;;
38785;SDS011;24535;45.508;12.252;2022-12-07T10:26:36;12.85;;;11.13;;
38785;SDS011;24535;45.508;12.252;2022-12-07T10:31:43;13.73;;;10.48;;
38785;SDS011;24535;45.508;12.252;2022-12-07T10:34:51;11.95;;;10.63;;
38785;SDS011;24535;45.508;12.252;2022-12-07T10:37:20;13.77;;;10.25;;
38785;SDS011;24535;45.508;12.252;2022-12-07T10:39:52;13.88;;;10.15;;
38785;SDS011;24535;45.508;12.252;2022-12-07T10:42:20;15.17;;;11.73;;
38785;SDS011;24535;45.508;12.252;2022-12-07T10:44:48;13.05;;;11.07;;
38785;SDS011;24535;45.508;12.252;2022-12-07T10:47:36;12.98;;;9.77;;
38785;SDS011;24535;45.508;12.252;2022-12-07T10:50:14;11.53;;;9.40;;
38785;SDS011;24535;45.508;12.252;2022-12-07T11:06:51;15.65;;;10.32;;
38785;SDS011;24535;45.508;12.252;2022-12-07T11:14:37;12.35;;;9.15;;
38785;SDS011;24535;45.508;12.252;2022-12-07T11:19:46;10.32;;;8.20;;
38785;SDS011;24535;45.508;12.252;2022-12-07T11:22:19;12.35;;;7.88;;
38785;SDS011;24535;45.508;12.252;2022-12-07T11:33:17;8.00;;;7.20;;
38785;SDS011;24535;45.508;12.252;2022-12-07T11:38:43;11.02;;;7.50;;
38785;SDS011;24535;45.508;12.252;2022-12-07T11:41:10;8.57;;;7.28;;
38785;SDS011;24535;45.508;12.252;2022-12-07T11:43:40;9.73;;;6.65;;
38785;SDS011;24535;45.508;12.252;2022-12-07T11:46:17;10.00;;;8.05;;
38785;SDS011;24535;45.508;12.252;2022-12-07T11:48:45;12.57;;;8.15;;
38785;SDS011;24535;45.508;12.252;2022-12-07T11:51:15;9.45;;;7.97;;
38785;SDS011;24535;45.508;12.252;2022-12-07T11:53:51;15.00;;;8.30;;
38785;SDS011;24535;45.508;12.252;2022-12-07T11:56:26;11.02;;;6.85;;
38785;SDS011;24535;45.508;12.252;2022-12-07T11:59:10;11.27;;;7.93;;
38785;SDS011;24535;45.508;12.252;2022-12-07T12:04:22;7.00;;;6.07;;
38785;SDS011;24535;45.508;12.252;2022-12-07T12:07:07;6.93;;;4.88;;
38785;SDS011;24535;45.508;12.252;2022-12-07T12:15:16;6.22;;;5.43;;
38785;SDS011;24535;45.508;12.252;2022-12-07T12:20:45;5.47;;;4.07;;
38785;SDS011;24535;45.508;12.252;2022-12-07T12:23:16;7.20;;;5.07;;
38785;SDS011;24535;45.508;12.252;2022-12-07T12:25:45;5.60;;;4.63;;
38785;SDS011;24535;45.508;12.252;2022-12-07T12:31:03;6.43;;;4.50;;
38785;SDS011;24535;45.508;12.252;2022-12-07T12:33:51;6.07;;;3.80;;
38785;SDS011;24535;45.508;12.252;2022-12-07T12:36:26;6.97;;;4.13;;
38785;SDS011;24535;45.508;12.252;2022-12-07T12:47:02;6.97;;;4.75;;
38785;SDS011;24535;45.508;12.252;2022-12-07T12:49:40;4.75;;;4.00;;
38785;SDS011;24535;45.508;12.252;2022-12-07T12:54:57;5.43;;;4.50;;
38785;SDS011;24535;45.508;12.252;2022-12-07T13:04:53;5.03;;;3.90;;
38785;SDS011;24535;45.508;12.252;2022-12-07T13:15:42;5.70;;;3.92;;
38785;SDS011;24535;45.508;12.252;2022-12-07T13:23:10;6.15;;;4.13;;
38785;SDS011;24535;45.508;12.252;2022-12-07T13:25:42;4.57;;;3.72;;
38785;SDS011;24535;45.508;12.252;2022-12-07T13:28:34;5.20;;;3.85;;
38785;SDS011;24535;45.508;12.252;2022-12-07T13:31:12;4.45;;;3.90;;
38785;SDS011;24535;45.508;12.252;2022-12-07T13:33:59;5.07;;;4.13;;
38785;SDS011;24535;45.508;12.252;2022-12-07T13:36:26;5.57;;;4.20;;
38785;SDS011;24535;45.508;12.252;2022-12-07T13:38:57;5.35;;;4.68;;
38785;SDS011;24535;45.508;12.252;2022-12-07T13:41:25;6.82;;;4.18;;
38785;SDS011;24535;45.508;12.252;2022-12-07T13:44:10;6.47;;;4.57;;
38785;SDS011;24535;45.508;12.252;2022-12-07T13:49:26;7.40;;;5.05;;
38785;SDS011;24535;45.508;12.252;2022-12-07T13:51:54;4.45;;;4.05;;
38785;SDS011;24535;45.508;12.252;2022-12-07T13:54:31;3.95;;;3.35;;
38785;SDS011;24535;45.508;12.252;2022-12-07T13:56:57;3.70;;;3.17;;
38785;SDS011;24535;45.508;12.252;2022-12-07T13:59:23;4.47;;;2.95;;
38785;SDS011;24535;45.508;12.252;2022-12-07T14:01:51;4.28;;;2.88;;
38785;SDS011;24535;45.508;12.252;2022-12-07T14:04:52;4.63;;;3.35;;
38785;SDS011;24535;45.508;12.252;2022-12-07T14:07:27;4.13;;;3.35;;
38785;SDS011;24535;45.508;12.252;2022-12-07T14:10:05;6.03;;;4.13;;
38785;SDS011;24535;45.508;12.252;2022-12-07T14:12:32;6.03;;;4.28;;
38785;SDS011;24535;45.508;12.252;2022-12-07T14:15:02;5.18;;;3.20;;
38785;SDS011;24535;45.508;12.252;2022-12-07T14:17:28;4.35;;;3.58;;
38785;SDS011;24535;45.508;12.252;2022-12-07T14:19:57;4.30;;;3.53;;
38785;SDS011;24535;45.508;12.252;2022-12-07T14:27:39;5.88;;;4.20;;
38785;SDS011;24535;45.508;12.252;2022-12-07T14:30:15;4.70;;;4.00;;
38785;SDS011;24535;45.508;12.252;2022-12-07T14:32:43;5.43;;;3.58;;
38785;SDS011;24535;45.508;12.252;2022-12-07T14:35:13;8.13;;;4.07;;
38785;SDS011;24535;45.508;12.252;2022-12-07T14:37:42;4.07;;;3.13;;
38785;SDS011;24535;45.508;12.252;2022-12-07T14:40:11;3.95;;;3.55;;
38785;SDS011;24535;45.508;12.252;2022-12-07T14:42:38;6.47;;;3.72;;
38785;SDS011;24535;45.508;12.252;2022-12-07T14:45:05;5.93;;;4.50;;
38785;SDS011;24535;45.508;12.252;2022-12-07T14:47:40;6.55;;;4.18;;
38785;SDS011;24535;45.508;12.252;2022-12-07T14:50:05;4.75;;;3.75;;
38785;SDS011;24535;45.508;12.252;2022-12-07T14:52:31;5.07;;;4.15;;
38785;SDS011;24535;45.508;12.252;2022-12-07T14:54:58;5.53;;;4.10;;
38785;SDS011;24535;45.508;12.252;2022-12-07T14:57:23;4.82;;;3.67;;
38785;SDS011;24535;45.508;12.252;2022-12-07T14:59:48;4.07;;;3.25;;
38785;SDS011;24535;45.508;12.252;2022-12-07T15:02:14;7.35;;;4.97;;
38785;SDS011;24535;45.508;12.252;2022-12-07T15:04:42;8.10;;;4.70;;
38785;SDS011;24535;45.508;12.252;2022-12-07T15:07:15;9.45;;;5.10;;
38785;SDS011;24535;45.508;12.252;2022-12-07T15:09:46;8.15;;;5.70;;
38785;SDS011;24535;45.508;12.252;2022-12-07T15:12:12;8.98;;;5.35;;
38785;SDS011;24535;45.508;12.252;2022-12-07T15:14:38;10.48;;;5.88;;
38785;SDS011;24535;45.508;12.252;2022-12-07T15:17:03;9.73;;;6.00;;
38785;SDS011;24535;45.508;12.252;2022-12-07T15:19:28;9.75;;;5.90;;
38785;SDS011;24535;45.508;12.252;2022-12-07T15:21:54;8.15;;;6.38;;
38785;SDS011;24535;45.508;12.252;2022-12-07T15:24:20;8.27;;;5.65;;
38785;SDS011;24535;45.508;12.252;2022-12-07T15:26:46;9.32;;;6.38;;
38785;SDS011;24535;45.508;12.252;2022-12-07T15:29:11;8.98;;;6.45;;
38785;SDS011;24535;45.508;12.252;2022-12-07T15:31:39;8.63;;;6.10;;
38785;SDS011;24535;45.508;12.252;2022-12-07T15:34:08;10.73;;;6.68;;
38785;SDS011;24535;45.508;12.252;2022-12-07T15:36:37;7.63;;;6.18;;
38785;SDS011;24535;45.508;12.252;2022-12-07T15:39:03;8.02;;;5.47;;
38785;SDS011;24535;45.508;12.252;2022-12-07T15:41:41;7.82;;;6.43;;
38785;SDS011;24535;45.508;12.252;2022-12-07T15:44:08;8.48;;;6.65;;
38785;SDS011;24535;45.508;12.252;2022-12-07T15:46:55;13.10;;;6.82;;
38785;SDS011;24535;45.508;12.252;2022-12-07T15:49:20;12.77;;;7.90;;
38785;SDS011;24535;45.508;12.252;2022-12-07T15:51:46;8.50;;;6.35;;
38785;SDS011;24535;45.508;12.252;2022-12-07T15:54:16;7.50;;;6.55;;
38785;SDS011;24535;45.508;12.252;2022-12-07T15:56:44;8.23;;;6.15;;
38785;SDS011;24535;45.508;12.252;2022-12-07T15:59:10;12.95;;;6.35;;
38785;SDS011;24535;45.508;12.252;2022-12-07T16:01:36;9.95;;;6.32;;
38785;SDS011;24535;45.508;12.252;2022-12-07T16:04:01;7.82;;;5.70;;
38785;SDS011;24535;45.508;12.252;2022-12-07T16:06:27;10.50;;;6.70;;
38785;SDS011;24535;45.508;12.252;2022-12-07T16:08:52;8.82;;;7.20;;
38785;SDS011;24535;45.508;12.252;2022-12-07T16:11:17;9.40;;;6.38;;
38785;SDS011;24535;45.508;12.252;2022-12-07T16:13:43;8.93;;;6.10;;
38785;SDS011;24535;45.508;12.252;2022-12-07T16:16:13;13.45;;;6.35;;
38785;SDS011;24535;45.508;12.252;2022-12-07T16:18:42;8.27;;;6.32;;
38785;SDS011;24535;45.508;12.252;2022-12-07T16:21:08;9.23;;;6.75;;
38785;SDS011;24535;45.508;12.252;2022-12-07T16:23:34;11.20;;;6.95;;
38785;SDS011;24535;45.508;12.252;2022-12-07T16:28:32;8.27;;;7.13;;
38785;SDS011;24535;45.508;12.252;2022-12-07T16:31:03;10.90;;;8.02;;
38785;SDS011;24535;45.508;12.252;2022-12-07T16:33:32;11.85;;;8.73;;
38785;SDS011;24535;45.508;12.252;2022-12-07T16:35:59;11.65;;;8.88;;
38785;SDS011;24535;45.508;12.252;2022-12-07T16:38:26;11.88;;;8.98;;
38785;SDS011;24535;45.508;12.252;2022-12-07T16:43:39;12.13;;;7.90;;
38785;SDS011;24535;45.508;12.252;2022-12-07T16:46:05;10.10;;;7.57;;
38785;SDS011;24535;45.508;12.252;2022-12-07T16:48:31;12.27;;;9.32;;
38785;SDS011;24535;45.508;12.252;2022-12-07T16:51:01;10.70;;;9.13;;
38785;SDS011;24535;45.508;12.252;2022-12-07T16:53:28;9.93;;;8.48;;
38785;SDS011;24535;45.508;12.252;2022-12-07T16:55:54;15.63;;;9.57;;
38785;SDS011;24535;45.508;12.252;2022-12-07T16:58:19;14.02;;;10.02;;
38785;SDS011;24535;45.508;12.252;2022-12-07T17:00:45;13.60;;;10.80;;
38785;SDS011;24535;45.508;12.252;2022-12-07T17:03:10;14.13;;;11.35;;
38785;SDS011;24535;45.508;12.252;2022-12-07T17:05:37;15.93;;;12.35;;
38785;SDS011;24535;45.508;12.252;2022-12-07T17:08:04;15.60;;;11.48;;
38785;SDS011;24535;45.508;12.252;2022-12-07T17:10:29;16.05;;;11.93;;